createdAt,value
2023-04-09T00:01:24.862Z,5.62
2023-04-09T00:03:51.830Z,5.50
2023-04-09T00:06:18.850Z,5.76
2023-04-09T00:08:46.030Z,5.55
2023-04-09T00:11:13.044Z,5.69
2023-04-09T00:13:40.207Z,5.80
2023-04-09T00:16:08.141Z,5.13
2023-04-09T00:18:35.504Z,5.47
2023-04-09T00:21:02.685Z,5.67
2023-04-09T00:23:29.684Z,5.35
2023-04-09T00:25:56.647Z,5.33
2023-04-09T00:28:23.614Z,5.61
2023-04-09T00:30:51.070Z,5.21
2023-04-09T00:33:18.043Z,5.21
2023-04-09T00:35:45.027Z,5.09
2023-04-09T00:38:12.063Z,5.38
2023-04-09T00:40:39.102Z,4.82
2023-04-09T00:43:06.057Z,5.50
2023-04-09T00:45:33.098Z,5.18
2023-04-09T00:48:00.299Z,5.54
2023-04-09T00:50:27.480Z,5.53
2023-04-09T00:52:54.527Z,5.32
2023-04-09T00:55:21.700Z,5.32
2023-04-09T00:57:48.757Z,5.52
2023-04-09T01:00:16.023Z,5.33
2023-04-09T01:02:44.521Z,5.21
2023-04-09T01:05:13.311Z,5.45
2023-04-09T01:08:03.055Z,5.51
2023-04-09T01:10:38.619Z,5.42
2023-04-09T01:13:16.367Z,5.21
2023-04-09T01:15:52.509Z,5.36
2023-04-09T01:18:23.696Z,5.34
2023-04-09T01:21:06.639Z,5.34
2023-04-09T01:24:07.668Z,5.28
2023-04-09T01:26:43.481Z,5.29
2023-04-09T01:29:11.116Z,4.99
2023-04-09T01:31:40.531Z,4.50
2023-04-09T01:34:11.428Z,5.12
2023-04-09T01:36:40.681Z,5.21
2023-04-09T01:39:08.210Z,4.87
2023-04-09T01:41:36.381Z,5.21
2023-04-09T01:44:06.003Z,4.98
2023-04-09T01:46:34.951Z,5.20
2023-04-09T01:49:02.902Z,5.22
2023-04-09T01:51:31.804Z,5.06
2023-04-09T01:53:59.749Z,4.97
2023-04-09T01:56:27.295Z,5.07
2023-04-09T01:58:54.947Z,4.97
2023-04-09T02:01:22.248Z,5.00
2023-04-09T02:03:54.639Z,5.06
2023-04-09T02:06:46.627Z,5.07
2023-04-09T02:09:18.860Z,5.01
2023-04-09T02:11:49.180Z,4.75
2023-04-09T02:14:16.687Z,4.91
2023-04-09T02:16:43.807Z,4.48
2023-04-09T02:19:11.191Z,4.89
2023-04-09T02:21:41.394Z,4.77
2023-04-09T02:24:08.409Z,4.66
2023-04-09T02:26:35.959Z,4.77
2023-04-09T02:29:03.237Z,4.65
2023-04-09T02:31:30.411Z,4.78
2023-04-09T02:33:57.559Z,4.40
2023-04-09T02:36:24.580Z,4.64
2023-04-09T02:38:51.800Z,4.97
2023-04-09T02:41:19.810Z,4.87
2023-04-09T02:43:46.855Z,4.41
2023-04-09T02:46:13.919Z,4.49
2023-04-09T02:48:41.031Z,4.51
2023-04-09T02:51:08.538Z,4.32
2023-04-09T02:53:35.574Z,4.62
2023-04-09T02:56:02.738Z,4.48
2023-04-09T02:58:29.691Z,4.11
2023-04-09T03:00:56.677Z,4.11
2023-04-09T03:03:23.712Z,4.24
2023-04-09T03:05:50.838Z,4.45
2023-04-09T03:08:17.769Z,4.45
2023-04-09T03:10:45.944Z,4.58
2023-04-09T03:13:12.932Z,2.99
2023-04-09T03:15:39.937Z,3.61
2023-04-09T03:18:07.096Z,3.53
2023-04-09T03:20:34.140Z,4.56
2023-04-09T03:23:01.153Z,4.31
2023-04-09T03:25:39.322Z,4.10
2023-04-09T03:28:12.705Z,4.59
2023-04-09T03:30:52.374Z,4.61
2023-04-09T03:33:19.755Z,4.20
2023-04-09T03:35:58.237Z,4.65
2023-04-09T03:38:57.348Z,4.67
2023-04-09T03:41:37.326Z,4.44
2023-04-09T03:44:08.520Z,4.38
2023-04-09T03:46:58.717Z,4.60
2023-04-09T03:49:26.669Z,4.50
2023-04-09T03:51:56.784Z,4.55
2023-04-09T03:54:30.687Z,4.69
2023-04-09T03:56:58.656Z,4.37
2023-04-09T03:59:26.437Z,4.72
2023-04-09T04:01:53.612Z,4.71
2023-04-09T04:04:23.576Z,4.48
2023-04-09T04:06:55.305Z,4.78
2023-04-09T04:09:48.472Z,4.39
2023-04-09T04:12:17.844Z,4.61
2023-04-09T04:15:14.312Z,4.81
2023-04-09T04:17:49.510Z,4.51
2023-04-09T04:20:36.017Z,4.81
2023-04-09T04:23:08.284Z,4.91
2023-04-09T04:25:42.710Z,4.49
2023-04-09T04:28:13.245Z,4.27
2023-04-09T04:30:43.169Z,4.69
2023-04-09T04:33:11.179Z,4.31
2023-04-09T04:35:49.937Z,4.41
2023-04-09T04:38:37.436Z,4.39
2023-04-09T04:41:09.045Z,4.60
2023-04-09T04:43:41.675Z,4.94
2023-04-09T04:46:13.418Z,5.06
2023-04-09T04:48:40.478Z,4.92
2023-04-09T04:51:07.541Z,4.84
2023-04-09T04:53:41.300Z,4.87
2023-04-09T04:56:15.861Z,5.02
2023-04-09T04:59:01.405Z,5.03
2023-04-09T05:01:34.866Z,5.10
2023-04-09T05:04:06.375Z,4.99
2023-04-09T05:06:34.961Z,5.01
2023-04-09T05:09:06.650Z,4.78
2023-04-09T05:11:48.667Z,5.19
2023-04-09T05:14:21.517Z,5.26
2023-04-09T05:16:49.289Z,4.94
2023-04-09T05:19:21.709Z,5.31
2023-04-09T05:21:54.586Z,4.95
2023-04-09T05:24:23.115Z,5.01
2023-04-09T05:26:50.490Z,5.01
2023-04-09T05:29:17.568Z,5.35
2023-04-09T05:31:44.535Z,5.38
2023-04-09T05:34:21.479Z,5.35
2023-04-09T05:36:51.949Z,5.24
2023-04-09T05:39:22.140Z,5.18
2023-04-09T05:41:49.503Z,5.18
2023-04-09T05:44:37.143Z,5.35
2023-04-09T05:47:09.263Z,4.43
2023-04-09T05:49:56.977Z,4.91
2023-04-09T05:52:24.209Z,4.98
2023-04-09T05:54:52.920Z,5.47
2023-04-09T05:57:26.202Z,5.18
2023-04-09T05:59:58.854Z,4.75
2023-04-09T06:02:26.876Z,5.10
2023-04-09T06:04:54.427Z,5.26
2023-04-09T06:07:21.667Z,5.44
2023-04-09T06:09:48.613Z,5.41
2023-04-09T06:12:15.988Z,4.76
2023-04-09T06:14:43.260Z,5.28
2023-04-09T06:17:10.246Z,5.31
2023-04-09T06:19:37.381Z,5.24
2023-04-09T06:22:04.357Z,4.62
2023-04-09T06:24:32.726Z,4.79
2023-04-09T06:26:59.776Z,4.86
2023-04-09T06:29:27.336Z,5.20
2023-04-09T06:31:54.514Z,5.36
2023-04-09T06:34:21.445Z,5.08
2023-04-09T06:36:48.427Z,5.04
2023-04-09T06:39:15.437Z,5.33
2023-04-09T06:41:42.419Z,5.42
2023-04-09T06:44:24.532Z,5.09
2023-04-09T06:46:51.803Z,5.42
2023-04-09T06:49:18.832Z,5.26
2023-04-09T06:51:45.936Z,5.33
2023-04-09T06:54:12.980Z,5.50
2023-04-09T06:56:39.999Z,5.56
2023-04-09T06:59:06.996Z,5.60
2023-04-09T07:01:35.754Z,5.16
2023-04-09T07:04:02.971Z,5.32
2023-04-09T07:06:30.052Z,5.68
2023-04-09T07:08:57.023Z,5.90
2023-04-09T07:11:24.018Z,5.87
2023-04-09T07:13:51.394Z,5.82
2023-04-09T07:16:18.542Z,5.48
2023-04-09T07:18:45.608Z,5.77
2023-04-09T07:21:12.720Z,5.96
2023-04-09T07:23:39.758Z,5.74
2023-04-09T07:26:06.786Z,5.81
2023-04-09T07:28:33.841Z,6.02
2023-04-09T07:31:04.997Z,6.16
2023-04-09T07:33:32.216Z,5.82
2023-04-09T07:35:59.415Z,5.99
2023-04-09T07:38:33.364Z,6.30
2023-04-09T07:41:00.465Z,5.99
2023-04-09T07:43:27.491Z,6.00
2023-04-09T07:45:54.702Z,6.46
2023-04-09T07:48:21.964Z,5.61
2023-04-09T07:50:48.912Z,5.43
2023-04-09T07:53:16.685Z,6.41
2023-04-09T07:55:43.747Z,6.52
2023-04-09T07:58:10.932Z,6.28
2023-04-09T08:00:38.249Z,6.49
2023-04-09T08:03:05.984Z,6.55
2023-04-09T08:05:33.036Z,6.63
2023-04-09T08:08:00.076Z,6.43
2023-04-09T08:10:27.129Z,6.22
2023-04-09T08:12:54.082Z,6.34
2023-04-09T08:15:21.147Z,6.78
2023-04-09T08:17:48.148Z,6.87
2023-04-09T08:20:17.117Z,6.61
2023-04-09T08:22:44.138Z,7.03
2023-04-09T08:25:11.232Z,7.29
2023-04-09T08:27:39.925Z,7.17
2023-04-09T08:30:08.021Z,7.08
2023-04-09T08:32:35.833Z,6.56
2023-04-09T08:35:02.839Z,7.25
2023-04-09T08:37:30.099Z,6.80
2023-04-09T08:39:57.056Z,7.17
2023-04-09T08:42:26.297Z,6.87
2023-04-09T08:44:53.455Z,7.13
2023-04-09T08:47:21.881Z,7.13
2023-04-09T08:49:50.326Z,7.60
2023-04-09T08:52:22.196Z,7.84
2023-04-09T08:54:51.620Z,7.87
2023-04-09T08:57:18.705Z,7.75
2023-04-09T08:59:46.775Z,7.66
2023-04-09T09:02:14.561Z,7.46
2023-04-09T09:04:49.156Z,7.68
2023-04-09T09:07:16.625Z,7.83
2023-04-09T09:09:53.495Z,7.66
2023-04-09T09:12:41.352Z,7.82
2023-04-09T09:15:28.537Z,7.72
2023-04-09T09:18:00.055Z,7.74
2023-04-09T09:20:27.885Z,7.77
2023-04-09T09:22:56.905Z,7.54
2023-04-09T09:25:24.996Z,7.72
2023-04-09T09:27:53.344Z,7.56
2023-04-09T09:30:26.009Z,7.54
2023-04-09T09:33:10.059Z,7.58
2023-04-09T09:35:57.118Z,7.71
2023-04-09T09:38:24.119Z,7.40
2023-04-09T09:40:52.656Z,7.78
2023-04-09T09:43:19.860Z,7.54
2023-04-09T09:45:47.568Z,7.42
2023-04-09T09:48:15.199Z,6.96
2023-04-09T09:50:43.275Z,7.29
2023-04-09T09:53:11.944Z,7.50
2023-04-09T09:55:48.457Z,6.74
2023-04-09T09:58:42.144Z,7.62
2023-04-09T10:01:13.569Z,7.89
2023-04-09T10:03:42.716Z,7.38
2023-04-09T10:06:11.354Z,7.39
2023-04-09T10:08:41.798Z,7.73
2023-04-09T10:11:09.124Z,7.22
2023-04-09T10:13:43.805Z,7.98
2023-04-09T10:16:11.420Z,7.93
2023-04-09T10:18:38.762Z,7.89
2023-04-09T10:21:44.825Z,7.68
2023-04-09T10:24:16.200Z,8.23
2023-04-09T10:26:47.198Z,7.82
2023-04-09T10:29:16.167Z,8.06
2023-04-09T10:32:23.879Z,7.93
2023-04-09T10:34:51.147Z,8.06
2023-04-09T10:37:25.402Z,8.10
2023-04-09T10:39:53.167Z,7.22
2023-04-09T10:42:27.475Z,8.17
2023-04-09T10:45:09.372Z,8.02
2023-04-09T10:47:38.795Z,7.82
2023-04-09T10:50:44.850Z,7.69
2023-04-09T10:53:25.180Z,8.02
2023-04-09T10:55:56.395Z,8.06
2023-04-09T10:58:23.393Z,8.03
2023-04-09T11:00:51.598Z,8.01
2023-04-09T11:03:30.797Z,8.23
2023-04-09T11:06:09.552Z,8.30
2023-04-09T11:08:42.837Z,7.89
2023-04-09T11:11:11.654Z,8.24
2023-04-09T11:13:41.740Z,8.27
2023-04-09T11:16:08.685Z,8.29
2023-04-09T11:18:37.388Z,7.55
2023-04-09T11:21:04.657Z,7.87
2023-04-09T11:23:33.311Z,8.12
2023-04-09T11:26:02.013Z,7.54
2023-04-09T11:28:29.068Z,8.03
2023-04-09T11:30:56.021Z,7.27
2023-04-09T11:33:23.059Z,7.38
2023-04-09T11:35:51.540Z,7.76
2023-04-09T11:38:18.835Z,8.34
2023-04-09T11:40:49.065Z,8.03
2023-04-09T11:43:17.899Z,8.26
2023-04-09T11:45:48.723Z,8.32
2023-04-09T11:48:21.959Z,8.20
2023-04-09T11:50:50.101Z,7.99
2023-04-09T11:53:21.590Z,8.24
2023-04-09T11:55:52.680Z,8.06
2023-04-09T11:58:24.774Z,7.86
2023-04-09T12:01:10.072Z,8.23
2023-04-09T12:03:38.173Z,8.17
2023-04-09T12:06:09.449Z,8.21
2023-04-09T12:08:37.676Z,7.90
2023-04-09T12:11:10.282Z,8.09
2023-04-09T12:13:37.337Z,7.89
2023-04-09T12:16:04.863Z,7.95
2023-04-09T12:18:35.947Z,8.28
2023-04-09T12:21:03.184Z,8.50
2023-04-09T12:23:31.689Z,8.22
2023-04-09T12:26:02.614Z,8.39
2023-04-09T12:28:29.616Z,8.24
2023-04-09T12:30:58.025Z,8.32
2023-04-09T12:33:25.349Z,8.47
2023-04-09T12:35:52.487Z,8.81
2023-04-09T12:38:19.571Z,8.56
2023-04-09T12:40:47.259Z,8.52
2023-04-09T12:43:14.433Z,8.59
2023-04-09T12:45:41.737Z,8.49
2023-04-09T12:48:09.016Z,8.41
2023-04-09T12:50:36.185Z,8.61
2023-04-09T12:53:03.238Z,8.52
2023-04-09T12:55:30.359Z,8.17
2023-04-09T12:57:58.693Z,8.60
2023-04-09T13:00:25.804Z,8.31
2023-04-09T13:02:53.197Z,7.80
2023-04-09T13:05:20.446Z,8.14
2023-04-09T13:07:47.836Z,8.56
2023-04-09T13:10:14.861Z,8.29
2023-04-09T13:12:41.874Z,8.32
2023-04-09T13:15:09.060Z,7.96
2023-04-09T13:17:36.071Z,8.17
2023-04-09T13:20:03.946Z,8.64
2023-04-09T13:22:31.147Z,8.34
2023-04-09T13:24:58.232Z,8.76
2023-04-09T13:27:25.291Z,8.03
2023-04-09T13:29:52.254Z,8.35
2023-04-09T13:32:21.230Z,8.88
2023-04-09T13:34:48.700Z,8.77
2023-04-09T13:37:16.592Z,8.57
2023-04-09T13:39:44.938Z,8.56
2023-04-09T13:42:13.924Z,8.68
2023-04-09T13:44:44.945Z,8.86
2023-04-09T13:47:13.477Z,8.63
2023-04-09T13:49:41.560Z,8.77
2023-04-09T13:52:09.247Z,8.34
2023-04-09T13:54:37.244Z,8.88
2023-04-09T13:57:04.304Z,8.79
2023-04-09T13:59:31.791Z,8.49
2023-04-09T14:01:58.928Z,8.56
2023-04-09T14:04:26.334Z,8.33
2023-04-09T14:06:53.325Z,8.47
2023-04-09T14:09:20.500Z,8.33
2023-04-09T14:11:47.547Z,8.59
2023-04-09T14:14:14.591Z,8.77
2023-04-09T14:16:41.914Z,8.80
2023-04-09T14:19:10.252Z,8.60
2023-04-09T14:21:37.350Z,8.74
2023-04-09T14:24:04.507Z,8.74
2023-04-09T14:26:31.765Z,8.50
2023-04-09T14:28:58.967Z,8.92
2023-04-09T14:31:26.283Z,8.77
2023-04-09T14:33:53.200Z,8.89
2023-04-09T14:36:20.289Z,8.60
2023-04-09T14:38:48.662Z,8.56
2023-04-09T14:41:16.739Z,8.23
2023-04-09T14:43:43.702Z,8.76
2023-04-09T14:46:12.327Z,8.59
2023-04-09T14:48:40.219Z,8.76
2023-04-09T14:51:11.723Z,8.64
2023-04-09T14:53:38.796Z,8.74
2023-04-09T14:56:06.773Z,8.66
2023-04-09T14:58:33.858Z,8.37
2023-04-09T15:01:00.955Z,8.43
2023-04-09T15:03:28.307Z,8.33
2023-04-09T15:05:55.725Z,8.51
2023-04-09T15:08:23.814Z,8.53
2023-04-09T15:10:51.373Z,8.72
2023-04-09T15:13:18.356Z,8.72
2023-04-09T15:15:45.511Z,8.73
2023-04-09T15:18:12.622Z,8.40
2023-04-09T15:20:40.614Z,8.75
2023-04-09T15:23:07.581Z,8.77
2023-04-09T15:25:35.537Z,8.62
2023-04-09T15:28:03.525Z,8.69
2023-04-09T15:30:30.872Z,8.68
2023-04-09T15:32:58.077Z,8.77
2023-04-09T15:35:26.812Z,8.05
2023-04-09T15:37:53.894Z,8.51
2023-04-09T15:40:21.418Z,8.49
2023-04-09T15:42:48.439Z,8.47
2023-04-09T15:45:18.244Z,7.83
2023-04-09T15:47:46.209Z,7.43
2023-04-09T15:50:14.111Z,7.18
2023-04-09T15:52:41.433Z,7.94
2023-04-09T15:55:09.210Z,7.95
2023-04-09T15:57:36.669Z,7.98
2023-04-09T16:00:03.935Z,7.53
2023-04-09T16:02:31.703Z,8.09
2023-04-09T16:04:58.894Z,7.99
2023-04-09T16:07:26.848Z,7.59
2023-04-09T16:09:53.910Z,7.18
2023-04-09T16:12:21.410Z,7.81
2023-04-09T16:14:48.351Z,7.37
2023-04-09T16:17:15.684Z,7.52
2023-04-09T16:19:43.424Z,8.05
2023-04-09T16:22:11.474Z,7.94
2023-04-09T16:24:38.658Z,7.39
2023-04-09T16:27:05.627Z,7.58
2023-04-09T16:29:32.745Z,7.31
2023-04-09T16:31:59.861Z,7.38
2023-04-09T16:34:26.950Z,7.58
2023-04-09T16:36:53.946Z,7.27
2023-04-09T16:39:21.504Z,7.27
2023-04-09T16:41:49.506Z,7.23
2023-04-09T16:44:16.555Z,7.54
2023-04-09T16:46:46.660Z,7.65
2023-04-09T16:49:14.195Z,7.69
2023-04-09T16:51:41.328Z,7.31
2023-04-09T16:54:08.489Z,7.53
2023-04-09T16:56:36.303Z,7.21
2023-04-09T16:59:03.295Z,7.40
2023-04-09T17:01:33.754Z,7.48
2023-04-09T17:04:04.214Z,7.45
2023-04-09T17:06:31.709Z,7.12
2023-04-09T17:08:59.600Z,6.77
2023-04-09T17:11:26.728Z,6.87
2023-04-09T17:13:57.235Z,7.07
2023-04-09T17:16:25.447Z,7.43
2023-04-09T17:18:53.587Z,7.38
2023-04-09T17:21:21.787Z,7.22
2023-04-09T17:23:56.213Z,7.34
2023-04-09T17:26:23.265Z,6.75
2023-04-09T17:28:50.356Z,7.05
2023-04-09T17:31:17.963Z,7.29
2023-04-09T17:33:48.128Z,7.10
2023-04-09T17:36:17.475Z,7.23
2023-04-09T17:38:44.516Z,7.28
2023-04-09T17:41:11.673Z,7.20
2023-04-09T17:43:41.820Z,7.11
2023-04-09T17:46:09.059Z,6.76
2023-04-09T17:48:37.498Z,6.84
2023-04-09T17:51:05.327Z,6.60
2023-04-09T17:53:32.329Z,4.96
2023-04-09T17:55:59.494Z,5.66
2023-04-09T17:58:27.204Z,6.36
2023-04-09T18:00:55.571Z,6.04
2023-04-09T18:03:22.854Z,6.61
2023-04-09T18:05:50.161Z,6.94
2023-04-09T18:08:18.698Z,5.89
2023-04-09T18:11:01.624Z,5.12
2023-04-09T18:13:38.458Z,5.86
2023-04-09T18:16:09.427Z,6.78
2023-04-09T18:18:36.686Z,6.29
2023-04-09T18:21:03.922Z,6.25
2023-04-09T18:23:31.090Z,6.91
2023-04-09T18:25:58.169Z,6.15
2023-04-09T18:28:25.322Z,5.32
2023-04-09T18:30:54.213Z,6.30
2023-04-09T18:33:21.382Z,5.90
2023-04-09T18:35:48.405Z,6.52
2023-04-09T18:38:15.462Z,6.90
2023-04-09T18:40:45.398Z,6.89
2023-04-09T18:43:12.614Z,6.12
2023-04-09T18:45:42.749Z,6.39
2023-04-09T18:48:11.563Z,4.82
2023-04-09T18:50:38.509Z,5.24
2023-04-09T18:53:06.807Z,6.78
2023-04-09T18:55:37.971Z,5.53
2023-04-09T18:58:12.715Z,6.54
2023-04-09T19:00:39.798Z,6.64
2023-04-09T19:03:08.209Z,5.28
2023-04-09T19:05:35.753Z,4.88
2023-04-09T19:08:05.746Z,4.83
2023-04-09T19:10:33.126Z,5.73
2023-04-09T19:13:00.163Z,4.94
2023-04-09T19:15:28.892Z,4.52
2023-04-09T19:17:56.820Z,6.40
2023-04-09T19:20:24.233Z,5.61
2023-04-09T19:22:56.768Z,6.42
2023-04-09T19:25:24.284Z,5.99
2023-04-09T19:27:53.721Z,5.70
2023-04-09T19:30:21.408Z,6.39
2023-04-09T19:32:48.491Z,4.85
2023-04-09T19:35:15.685Z,5.71
2023-04-09T19:37:42.843Z,4.37
2023-04-09T19:40:10.185Z,5.34
2023-04-09T19:42:37.224Z,5.21
2023-04-09T19:45:04.606Z,5.55
2023-04-09T19:47:31.905Z,5.60
2023-04-09T19:49:58.891Z,3.75
2023-04-09T19:52:26.236Z,4.72
2023-04-09T19:54:56.525Z,4.27
2023-04-09T19:57:23.766Z,4.20
2023-04-09T19:59:52.442Z,4.15
2023-04-09T20:02:19.823Z,5.09
2023-04-09T20:04:47.125Z,3.73
2023-04-09T20:07:14.445Z,5.09
2023-04-09T20:09:42.779Z,5.90
2023-04-09T20:12:10.180Z,4.96
2023-04-09T20:14:38.472Z,4.83
2023-04-09T20:17:08.906Z,4.11
2023-04-09T20:19:36.444Z,5.00
2023-04-09T20:22:03.505Z,5.82
2023-04-09T20:24:30.879Z,5.83
2023-04-09T20:26:59.686Z,5.60
2023-04-09T20:29:26.806Z,4.69
2023-04-09T20:31:53.848Z,5.53
2023-04-09T20:34:26.518Z,5.26
2023-04-09T20:36:54.261Z,4.50
2023-04-09T20:39:26.761Z,5.65
2023-04-09T20:41:55.259Z,4.63
2023-04-09T20:44:22.943Z,4.81
2023-04-09T20:46:51.036Z,5.03
2023-04-09T20:49:18.260Z,4.62
2023-04-09T20:51:46.433Z,4.90
2023-04-09T20:54:13.433Z,5.23
2023-04-09T20:56:40.712Z,5.60
2023-04-09T20:59:07.885Z,5.29
2023-04-09T21:01:36.001Z,4.56
2023-04-09T21:04:03.902Z,5.50
2023-04-09T21:06:31.239Z,5.36
2023-04-09T21:08:59.919Z,5.54
2023-04-09T21:11:27.040Z,4.62
2023-04-09T21:13:55.317Z,4.22
2023-04-09T21:16:23.273Z,3.44
2023-04-09T21:18:50.488Z,5.56
2023-04-09T21:21:17.540Z,5.61
2023-04-09T21:23:44.662Z,4.73
2023-04-09T21:26:12.032Z,3.49
2023-04-09T21:28:39.114Z,3.70
2023-04-09T21:31:06.475Z,5.71
2023-04-09T21:33:33.577Z,4.31
2023-04-09T21:36:01.436Z,4.73
2023-04-09T21:38:28.930Z,4.69
2023-04-09T21:40:55.859Z,3.84
2023-04-09T21:43:22.882Z,4.94
2023-04-09T21:45:50.774Z,3.55
2023-04-09T21:48:17.843Z,5.73
2023-04-09T21:50:45.616Z,4.89
2023-04-09T21:53:14.149Z,4.56
2023-04-09T21:55:41.274Z,5.57
2023-04-09T21:58:09.315Z,5.55
2023-04-09T22:00:37.046Z,5.39
2023-04-09T22:03:04.296Z,5.50
2023-04-09T22:05:34.451Z,4.89
2023-04-09T22:08:01.533Z,5.68
2023-04-09T22:10:41.022Z,5.53
2023-04-09T22:13:10.024Z,5.17
2023-04-09T22:15:37.492Z,5.65
2023-04-09T22:18:04.697Z,5.50
2023-04-09T22:20:31.897Z,5.66
2023-04-09T22:22:59.409Z,5.29
2023-04-09T22:25:26.626Z,5.62
2023-04-09T22:27:53.605Z,5.22
2023-04-09T22:30:24.600Z,5.38
2023-04-09T22:32:52.116Z,5.28
2023-04-09T22:35:19.251Z,5.05
2023-04-09T22:37:47.245Z,5.19
2023-04-09T22:40:16.144Z,4.05
2023-04-09T22:42:44.304Z,4.69
2023-04-09T22:45:11.796Z,4.69
2023-04-09T22:47:39.447Z,4.46
2023-04-09T22:50:07.405Z,4.21
2023-04-09T22:52:34.429Z,2.99
2023-04-09T22:55:02.178Z,4.09
2023-04-09T22:57:29.100Z,5.08
2023-04-09T22:59:56.536Z,5.11
2023-04-09T23:02:23.853Z,5.09
2023-04-09T23:04:51.160Z,3.59
2023-04-09T23:07:18.305Z,3.05
2023-04-09T23:09:45.754Z,4.30
2023-04-09T23:12:12.896Z,5.02
2023-04-09T23:14:42.852Z,3.18
2023-04-09T23:17:09.920Z,3.09
2023-04-09T23:19:36.814Z,3.99
2023-04-09T23:22:03.891Z,3.05
2023-04-09T23:36:31.178Z,4.00
2023-04-09T23:38:58.189Z,3.37
2023-04-09T23:41:26.174Z,3.95
2023-04-09T23:43:53.440Z,2.80
2023-04-09T23:46:20.830Z,3.41
2023-04-09T23:48:48.203Z,3.97
2023-04-09T23:51:19.247Z,4.07
2023-04-09T23:53:46.824Z,3.83
2023-04-09T23:56:14.804Z,3.65
2023-04-09T23:58:42.258Z,3.59
